Time;durP1;ratioP1;P1;durP2;ratioP2;P2;SDS_P1;SDS_P2;PMS_P1;PMS_P2;Temp;Humidity;BMP_temperature;BMP_pressure;BME280_temperature;BME280_humidity;BME280_pressure;Samples;Min_cycle;Max_cycle;Signal;HPM_P1;HPM_P2
2022/11/15 00:01:11;;;;;;;3.90;2.40;;;9.20;98.00;;;;;;5034130;28;20537;-66
2022/11/15 00:03:38;;;;;;;4.97;2.60;;;9.20;98.00;;;;;;5034001;28;20459;-66
2022/11/15 00:06:05;;;;;;;4.50;2.97;;;9.30;98.00;;;;;;5034008;28;20462;-66
2022/11/15 00:08:32;;;;;;;4.80;3.43;;;9.20;98.00;;;;;;5033906;28;20470;-66
2022/11/15 00:11:01;;;;;;;5.20;2.73;;;9.30;98.00;;;;;;5034248;28;20462;-66
2022/11/15 00:13:29;;;;;;;6.30;3.13;;;9.30;98.00;;;;;;5034208;28;20459;-66
2022/11/15 00:16:00;;;;;;;4.37;2.43;;;9.40;98.00;;;;;;5033639;28;20484;-66
2022/11/15 00:18:27;;;;;;;6.30;3.13;;;9.40;98.00;;;;;;5033892;28;20462;-66
2022/11/15 00:20:55;;;;;;;4.33;2.27;;;9.30;98.00;;;;;;5032282;28;20863;-66
2022/11/15 00:23:22;;;;;;;4.10;2.90;;;9.30;98.00;;;;;;5016236;28;20582;-66
2022/11/15 00:25:57;;;;;;;5.77;2.80;;;9.30;98.00;;;;;;5032906;28;20957;-66
2022/11/15 00:28:24;;;;;;;7.87;2.80;;;9.50;98.00;;;;;;5033679;28;20458;-66
2022/11/15 00:30:51;;;;;;;3.80;2.83;;;9.60;98.00;;;;;;5033500;28;20454;-66
2022/11/15 00:33:20;;;;;;;6.80;2.30;;;9.70;98.00;;;;;;5016162;28;20466;-66
2022/11/15 00:35:47;;;;;;;4.63;2.50;;;9.70;98.00;;;;;;5033385;28;20482;-66
2022/11/15 00:38:14;;;;;;;7.37;3.53;;;9.60;98.00;;;;;;5016151;28;20951;-66
2022/11/15 00:40:42;;;;;;;3.23;1.80;;;9.60;98.00;;;;;;5033467;28;20462;-66
2022/11/15 00:43:09;;;;;;;5.50;3.53;;;9.60;98.00;;;;;;5016160;28;20455;-66
2022/11/15 00:45:36;;;;;;;5.63;3.00;;;9.50;98.00;;;;;;5033466;28;20478;-66
2022/11/15 00:48:03;;;;;;;5.20;2.50;;;9.40;98.00;;;;;;5033386;28;20467;-66
2022/11/15 00:50:32;;;;;;;4.70;2.33;;;9.40;98.00;;;;;;5033519;28;20829;-66
2022/11/15 00:53:02;;;;;;;4.60;2.40;;;9.30;98.00;;;;;;5033524;28;20873;-66
2022/11/15 00:55:29;;;;;;;3.53;2.23;;;9.30;98.00;;;;;;5015801;28;21000;-66
2022/11/15 00:57:56;;;;;;;4.50;2.63;;;9.30;98.00;;;;;;5033073;28;20467;-66
2022/11/15 01:00:23;;;;;;;2.63;2.13;;;9.30;98.00;;;;;;5033042;28;20959;-66
2022/11/15 01:02:50;;;;;;;4.63;2.13;;;9.30;98.00;;;;;;5015439;28;20460;-66
2022/11/15 01:05:18;;;;;;;4.30;2.40;;;9.20;98.00;;;;;;5015318;28;20972;-66
2022/11/15 01:07:46;;;;;;;3.73;2.50;;;9.10;98.00;;;;;;5032999;28;20472;-65
2022/11/15 01:10:14;;;;;;;8.27;2.63;;;9.20;98.00;;;;;;5032632;28;20455;-66
2022/11/15 01:12:42;;;;;;;5.33;2.40;;;9.20;98.00;;;;;;5032701;28;20463;-66
2022/11/15 01:15:10;;;;;;;5.73;2.80;;;9.20;98.00;;;;;;5032655;28;20479;-66
2022/11/15 01:17:37;;;;;;;6.30;2.40;;;9.10;98.00;;;;;;5031523;28;20467;-66
2022/11/15 01:20:06;;;;;;;2.80;2.17;;;9.00;98.00;;;;;;5032547;28;20459;-66
2022/11/15 01:22:33;;;;;;;4.10;2.17;;;8.90;98.00;;;;;;5032526;28;20460;-66
2022/11/15 01:25:02;;;;;;;3.70;2.30;;;9.00;98.00;;;;;;5032314;28;20467;-66
2022/11/15 01:27:30;;;;;;;4.30;2.40;;;8.90;98.00;;;;;;5032408;28;20468;-66
2022/11/15 01:29:57;;;;;;;3.40;2.03;;;8.90;98.00;;;;;;5032149;28;20466;-66
2022/11/15 01:32:24;;;;;;;3.73;2.87;;;8.90;98.00;;;;;;5032357;28;20740;-66
2022/11/15 01:34:51;;;;;;;4.60;2.70;;;8.90;98.00;;;;;;5032114;28;20493;-66
2022/11/15 01:37:18;;;;;;;4.07;2.07;;;9.00;98.00;;;;;;5031680;28;20472;-66
2022/11/15 01:39:45;;;;;;;3.97;2.27;;;8.90;98.00;;;;;;5032259;28;20459;-66
2022/11/15 01:42:15;;;;;;;4.00;2.43;;;8.90;98.00;;;;;;5032673;28;20462;-66
2022/11/15 01:44:44;;;;;;;4.10;2.60;;;8.70;98.00;;;;;;5032351;28;20466;-66
2022/11/15 01:47:15;;;;;;;4.40;2.27;;;8.70;98.00;;;;;;5032433;28;20469;-66
2022/11/15 01:49:50;;;;;;;6.40;2.43;;;8.60;98.00;;;;;;5032202;28;20467;-66
2022/11/15 01:52:20;;;;;;;3.87;1.97;;;8.40;98.00;;;;;;5032348;28;20470;-66
2022/11/15 01:54:49;;;;;;;3.40;2.30;;;8.30;98.00;;;;;;5031851;28;20474;-66
2022/11/15 01:57:17;;;;;;;3.17;2.27;;;8.30;98.00;;;;;;5031951;28;20867;-65
2022/11/15 01:59:46;;;;;;;3.60;2.30;;;8.30;98.00;;;;;;5031755;28;20454;-66
2022/11/15 02:02:14;;;;;;;4.43;1.57;;;8.30;98.00;;;;;;5031712;28;21006;-66
2022/11/15 02:04:42;;;;;;;4.30;1.90;;;8.30;98.00;;;;;;5031561;28;20512;-66
2022/11/15 02:07:12;;;;;;;1.90;1.60;;;8.20;98.00;;;;;;5032070;28;20515;-66
2022/11/15 02:09:40;;;;;;;4.30;1.83;;;8.10;98.00;;;;;;5031788;28;20980;-65
2022/11/15 02:12:10;;;;;;;2.23;1.60;;;8.10;98.00;;;;;;5031716;28;20462;-66
2022/11/15 02:14:41;;;;;;;3.40;2.13;;;8.10;98.00;;;;;;5031471;28;20470;-66
2022/11/15 02:17:21;;;;;;;3.67;2.37;;;8.10;98.00;;;;;;5031532;28;20466;-66
2022/11/15 02:20:29;;;;;;;3.50;2.27;;;8.10;98.00;;;;;;5031443;28;20461;-66
2022/11/15 02:23:29;;;;;;;2.57;1.83;;;8.10;98.00;;;;;;5031395;28;20531;-66
2022/11/15 02:26:14;;;;;;;3.37;2.20;;;8.20;98.00;;;;;;5024935;28;20528;-66
2022/11/15 02:28:49;;;;;;;3.00;2.07;;;8.10;98.00;;;;;;5013789;28;20463;-66
2022/11/15 02:31:27;;;;;;;2.73;2.10;;;8.00;98.00;;;;;;5031590;28;20495;-66
2022/11/15 02:34:03;;;;;;;3.77;2.50;;;7.90;98.00;;;;;;5031414;28;20470;-66
2022/11/15 02:36:37;;;;;;;3.57;2.20;;;7.90;98.00;;;;;;5031312;28;20489;-66
2022/11/15 02:39:11;;;;;;;2.60;2.30;;;7.80;98.00;;;;;;5031358;28;20845;-66
2022/11/15 02:41:46;;;;;;;3.50;2.20;;;7.80;98.00;;;;;;5031814;28;21097;-66
2022/11/15 02:44:17;;;;;;;3.27;1.93;;;7.80;98.00;;;;;;5031419;28;20470;-66
2022/11/15 02:49:35;;;;;;;2.80;2.03;;;7.70;98.00;;;;;;5030940;28;20445;-66
2022/11/15 02:52:02;;;;;;;2.03;1.63;;;7.70;98.00;;;;;;5031281;28;20559;-65
2022/11/15 02:54:32;;;;;;;2.20;1.83;;;7.70;98.00;;;;;;5031003;28;20454;-65
2022/11/15 02:57:03;;;;;;;3.23;2.60;;;7.70;98.00;;;;;;5031117;28;21176;-66
2022/11/15 02:59:54;;;;;;;4.17;2.27;;;7.60;98.00;;;;;;5031342;28;20840;-66
2022/11/15 03:02:45;;;;;;;5.43;1.93;;;7.60;98.00;;;;;;5027888;28;20523;-66
2022/11/15 03:05:20;;;;;;;4.77;2.10;;;7.80;98.00;;;;;;5027933;28;20468;-65
2022/11/15 03:07:55;;;;;;;2.03;1.80;;;7.70;98.00;;;;;;5031100;28;20467;-65
2022/11/15 03:10:26;;;;;;;5.67;2.17;;;7.60;98.00;;;;;;5031096;28;20465;-65
2022/11/15 03:12:58;;;;;;;3.03;1.90;;;7.60;98.00;;;;;;5013373;28;20470;-66
2022/11/15 03:15:29;;;;;;;3.50;2.37;;;7.60;98.00;;;;;;5030901;28;20493;-65
2022/11/15 03:18:02;;;;;;;3.00;1.80;;;7.60;98.00;;;;;;5030993;28;20951;-65
2022/11/15 03:20:34;;;;;;;2.73;1.93;;;7.60;98.00;;;;;;5031022;28;20832;-65
2022/11/15 03:23:04;;;;;;;2.83;2.03;;;7.60;98.00;;;;;;5030944;28;20547;-66
2022/11/15 03:25:34;;;;;;;1.73;1.63;;;7.70;98.00;;;;;;5031166;28;20450;-65
2022/11/15 03:28:05;;;;;;;2.37;1.67;;;7.80;98.00;;;;;;5030758;28;20521;-66
2022/11/15 03:30:36;;;;;;;2.60;1.80;;;7.80;98.00;;;;;;5031104;28;20457;-65
2022/11/15 03:33:06;;;;;;;3.60;1.87;;;7.70;98.00;;;;;;5030784;28;20457;-66
2022/11/15 03:35:38;;;;;;;2.70;2.23;;;7.70;98.00;;;;;;5030997;28;20881;-66
2022/11/15 03:38:12;;;;;;;1.73;1.30;;;7.70;98.00;;;;;;5031412;28;20869;-66
2022/11/15 03:40:41;;;;;;;1.80;1.60;;;7.70;98.00;;;;;;5030791;28;20469;-66
2022/11/15 03:43:16;;;;;;;2.30;1.70;;;7.70;98.00;;;;;;5030744;28;20600;-66
2022/11/15 03:45:49;;;;;;;2.27;1.67;;;7.70;98.00;;;;;;5030554;28;20960;-66
2022/11/15 03:48:22;;;;;;;2.80;1.60;;;7.60;98.00;;;;;;5031802;28;20465;-65
2022/11/15 03:50:50;;;;;;;2.70;1.63;;;7.70;98.00;;;;;;5031198;28;20464;-65
2022/11/15 03:53:19;;;;;;;2.13;1.53;;;7.70;98.00;;;;;;5014330;28;20525;-66
2022/11/15 03:55:46;;;;;;;2.07;1.50;;;7.70;98.00;;;;;;5031101;28;20489;-65
2022/11/15 03:58:13;;;;;;;2.80;1.60;;;7.70;98.00;;;;;;5030872;28;20488;-66
2022/11/15 04:00:41;;;;;;;2.03;1.67;;;7.70;98.00;;;;;;5032475;28;20708;-66
2022/11/15 04:03:08;;;;;;;2.20;1.63;;;7.70;98.00;;;;;;5016800;28;20471;-65
2022/11/15 04:05:37;;;;;;;1.90;1.33;;;7.70;98.00;;;;;;5034147;28;20493;-66
2022/11/15 04:08:04;;;;;;;1.80;1.70;;;7.80;98.00;;;;;;5034038;28;20468;-66
2022/11/15 04:10:31;;;;;;;3.30;1.70;;;7.90;98.00;;;;;;5034016;28;20861;-65
2022/11/15 04:12:58;;;;;;;1.70;1.40;;;7.90;98.00;;;;;;5033741;28;20454;-65
2022/11/15 04:15:25;;;;;;;2.27;1.73;;;7.80;98.00;;;;;;5033996;28;20505;-65
2022/11/15 04:17:54;;;;;;;2.50;1.60;;;7.70;98.00;;;;;;5033749;28;20458;-65
2022/11/15 04:26:00;;;;;;;2.23;1.70;;;7.60;98.00;;;;;;5033862;28;20963;-65
2022/11/15 04:28:28;;;;;;;2.40;2.13;;;7.60;98.00;;;;;;5016068;28;20460;-66
2022/11/15 04:30:55;;;;;;;3.00;1.67;;;7.60;98.00;;;;;;5033868;28;20471;-66
2022/11/15 04:33:23;;;;;;;2.43;1.90;;;7.60;98.00;;;;;;5033898;28;20462;-65
2022/11/15 04:38:32;;;;;;;2.60;1.90;;;7.70;98.00;;;;;;5032483;28;20976;-66
2022/11/15 04:40:59;;;;;;;2.63;1.90;;;7.60;98.00;;;;;;5033522;28;20466;-65
2022/11/15 04:43:27;;;;;;;4.23;1.93;;;7.60;98.00;;;;;;5033388;28;20784;-66
2022/11/15 04:45:54;;;;;;;2.33;1.73;;;7.60;98.00;;;;;;5033306;28;20450;-65
2022/11/15 04:48:21;;;;;;;2.17;1.80;;;7.60;98.00;;;;;;5015987;28;20458;-65
2022/11/15 04:50:49;;;;;;;1.73;1.40;;;7.60;98.00;;;;;;5033055;28;20454;-65
2022/11/15 04:53:16;;;;;;;2.57;2.00;;;7.60;98.00;;;;;;5033329;28;20469;-65
2022/11/15 04:55:47;;;;;;;2.03;1.60;;;7.60;98.00;;;;;;5033007;28;20857;-66
2022/11/15 04:58:14;;;;;;;3.10;1.90;;;7.70;98.00;;;;;;5033179;28;20469;-66
2022/11/15 05:00:42;;;;;;;2.17;1.60;;;7.70;98.00;;;;;;5033187;28;20466;-65
2022/11/15 05:05:55;;;;;;;1.50;1.50;;;7.70;98.00;;;;;;5033234;28;20478;-65
2022/11/15 05:08:22;;;;;;;1.77;1.40;;;7.70;98.00;;;;;;5032958;28;20462;-65
2022/11/15 05:10:51;;;;;;;9.50;1.90;;;7.70;98.00;;;;;;5032509;28;20546;-65
2022/11/15 05:13:18;;;;;;;1.43;1.40;;;7.80;98.00;;;;;;5032822;28;20461;-66
2022/11/15 05:15:45;;;;;;;3.90;2.70;;;7.80;98.00;;;;;;5032463;28;20461;-65
2022/11/15 05:18:12;;;;;;;1.60;1.27;;;7.90;98.00;;;;;;5033104;28;20464;-65
2022/11/15 05:20:39;;;;;;;3.10;2.20;;;7.90;98.00;;;;;;5032585;28;20469;-65
2022/11/15 05:23:07;;;;;;;2.33;1.67;;;7.90;98.00;;;;;;5032850;28;20454;-65
2022/11/15 05:25:34;;;;;;;2.00;1.50;;;7.90;98.00;;;;;;5032980;28;20457;-65
2022/11/15 05:28:02;;;;;;;1.30;1.20;;;7.80;98.00;;;;;;5032471;28;20589;-65
2022/11/15 05:30:29;;;;;;;3.70;2.00;;;7.80;98.00;;;;;;5032472;28;20457;-65
2022/11/15 05:32:56;;;;;;;3.50;1.70;;;7.80;98.00;;;;;;5032650;28;20821;-66
2022/11/15 05:35:31;;;;;;;2.33;1.70;;;7.90;98.00;;;;;;5032476;28;20459;-65
2022/11/15 05:37:58;;;;;;;1.73;1.30;;;7.90;98.00;;;;;;5032258;28;20521;-65
2022/11/15 05:40:26;;;;;;;2.90;1.67;;;7.80;98.00;;;;;;5032210;28;20465;-65
2022/11/15 05:42:53;;;;;;;2.80;2.03;;;7.70;98.00;;;;;;5032181;28;20953;-65
2022/11/15 05:45:22;;;;;;;1.80;1.60;;;7.70;98.00;;;;;;5032059;28;20462;-65
2022/11/15 05:47:51;;;;;;;2.30;2.10;;;7.60;98.00;;;;;;5032121;28;20477;-65
2022/11/15 05:50:19;;;;;;;2.47;1.70;;;7.60;98.00;;;;;;5014663;28;20520;-66
2022/11/15 05:52:48;;;;;;;2.23;1.60;;;7.60;98.00;;;;;;5031955;28;20452;-65
2022/11/15 05:55:15;;;;;;;2.43;1.60;;;7.50;98.00;;;;;;5032053;28;20492;-65
2022/11/15 05:57:44;;;;;;;2.27;1.50;;;7.50;98.00;;;;;;5031950;28;20521;-65
2022/11/15 06:00:13;;;;;;;2.37;1.60;;;7.50;98.00;;;;;;5032122;28;20826;-65
2022/11/15 06:02:43;;;;;;;3.00;1.60;;;7.50;98.00;;;;;;5031870;28;20987;-65
2022/11/15 06:05:10;;;;;;;2.60;1.80;;;7.50;98.00;;;;;;5032085;28;20480;-65
2022/11/15 06:07:37;;;;;;;2.47;1.90;;;7.50;98.00;;;;;;5031750;28;20958;-65
2022/11/15 06:10:04;;;;;;;1.73;1.40;;;7.50;98.00;;;;;;5031648;28;20467;-65
2022/11/15 06:12:31;;;;;;;2.60;1.50;;;7.50;98.00;;;;;;5031693;28;21022;-65
2022/11/15 06:14:58;;;;;;;2.70;1.83;;;7.40;98.00;;;;;;5031740;28;20512;-65
2022/11/15 06:17:25;;;;;;;1.93;1.57;;;7.30;98.00;;;;;;5031872;28;20538;-65
2022/11/15 06:19:56;;;;;;;16.53;2.00;;;7.40;98.00;;;;;;5014406;28;20466;-66
2022/11/15 06:22:23;;;;;;;2.27;1.73;;;7.40;98.00;;;;;;5031234;28;20461;-65
2022/11/15 06:24:50;;;;;;;2.37;1.60;;;7.20;98.00;;;;;;5031411;28;20453;-65
2022/11/15 06:27:17;;;;;;;1.97;1.50;;;7.10;98.00;;;;;;5031452;28;20507;-66
2022/11/15 06:29:44;;;;;;;2.00;1.40;;;7.20;98.00;;;;;;5031409;28;20814;-65
2022/11/15 06:32:11;;;;;;;2.67;1.70;;;7.30;98.00;;;;;;5031479;28;20458;-65
2022/11/15 06:34:38;;;;;;;2.80;1.60;;;7.30;98.00;;;;;;5031226;28;20466;-65
2022/11/15 06:37:07;;;;;;;2.77;2.13;;;7.20;98.00;;;;;;5031259;28;21046;-65
2022/11/15 06:39:34;;;;;;;2.33;1.70;;;7.30;98.00;;;;;;5031376;28;20811;-65
2022/11/15 06:42:01;;;;;;;2.30;1.77;;;7.10;98.00;;;;;;5031182;28;20460;-65
2022/11/15 06:44:28;;;;;;;1.83;1.60;;;7.00;98.00;;;;;;5031522;28;20469;-65
2022/11/15 06:46:55;;;;;;;2.60;1.97;;;7.00;98.00;;;;;;5031386;28;20454;-65
2022/11/15 06:49:23;;;;;;;1.53;1.27;;;6.80;98.00;;;;;;5031287;28;20459;-65
2022/11/15 06:51:50;;;;;;;2.27;1.63;;;6.90;98.00;;;;;;5013632;28;20472;-65
2022/11/15 06:54:18;;;;;;;1.60;1.50;;;7.00;98.00;;;;;;5013736;28;20460;-65
2022/11/15 06:56:46;;;;;;;1.50;1.40;;;7.00;98.00;;;;;;5031060;28;20500;-65
2022/11/15 06:59:14;;;;;;;2.80;2.07;;;7.00;98.00;;;;;;5031085;28;20792;-65
2022/11/15 07:01:41;;;;;;;1.90;1.63;;;6.90;98.00;;;;;;5013927;28;20468;-65
2022/11/15 07:04:08;;;;;;;3.00;2.17;;;7.00;98.00;;;;;;5031027;28;20464;-65
2022/11/15 07:06:35;;;;;;;2.47;1.83;;;7.00;98.00;;;;;;5013716;28;20469;-63
2022/11/15 07:09:03;;;;;;;2.17;1.87;;;7.10;98.00;;;;;;5031241;28;20954;-63
2022/11/15 07:11:33;;;;;;;3.00;2.13;;;7.10;98.00;;;;;;5013881;28;20907;-63
2022/11/15 07:14:01;;;;;;;3.53;2.43;;;7.00;98.00;;;;;;5030572;28;21046;-63
2022/11/15 07:16:30;;;;;;;5.13;2.13;;;6.90;98.00;;;;;;5031074;28;20538;-63
2022/11/15 07:18:57;;;;;;;8.63;2.90;;;6.90;98.00;;;;;;5030620;28;20469;-64
2022/11/15 07:21:24;;;;;;;5.47;2.57;;;6.80;98.00;;;;;;5030790;28;20989;-63
2022/11/15 07:23:51;;;;;;;3.27;1.93;;;6.80;98.00;;;;;;5031044;28;20466;-64
2022/11/15 07:26:18;;;;;;;1.70;1.50;;;6.90;98.00;;;;;;5031056;28;20534;-63
2022/11/15 07:28:47;;;;;;;3.20;2.10;;;6.80;98.00;;;;;;5031426;28;20511;-64
2022/11/15 07:31:14;;;;;;;2.57;1.67;;;6.80;98.00;;;;;;5031473;28;20464;-63
2022/11/15 07:33:42;;;;;;;3.30;2.30;;;6.80;98.00;;;;;;5031787;28;20520;-63
2022/11/15 07:36:10;;;;;;;10.67;4.50;;;7.00;98.00;;;;;;5035139;28;20456;-64
2022/11/15 07:38:39;;;;;;;5.70;3.03;;;6.90;98.00;;;;;;5035303;28;21171;-63
2022/11/15 07:41:07;;;;;;;3.27;1.73;;;7.00;98.00;;;;;;5035081;28;20511;-64
2022/11/15 07:43:35;;;;;;;2.90;1.90;;;7.10;98.00;;;;;;5017827;28;20833;-63
2022/11/15 07:46:09;;;;;;;2.30;1.37;;;7.30;98.00;;;;;;5035184;28;20937;-62
2022/11/15 07:48:36;;;;;;;2.90;2.00;;;7.50;98.00;;;;;;5034997;28;20452;-64
2022/11/15 07:51:03;;;;;;;1.60;1.60;;;7.60;98.00;;;;;;5035379;28;20837;-63
2022/11/15 07:53:30;;;;;;;8.83;2.00;;;7.60;98.00;;;;;;5035178;28;20466;-63
2022/11/15 07:56:00;;;;;;;2.63;1.90;;;7.70;98.00;;;;;;5017840;28;20493;-64
2022/11/15 07:58:27;;;;;;;2.73;2.00;;;7.70;98.00;;;;;;5034768;28;20492;-64
2022/11/15 08:00:55;;;;;;;3.20;1.90;;;7.80;98.00;;;;;;5035182;28;20462;-63
2022/11/15 08:03:23;;;;;;;2.80;1.80;;;7.80;98.00;;;;;;5035148;28;20962;-63
2022/11/15 08:05:52;;;;;;;2.43;2.23;;;7.70;98.00;;;;;;5033957;28;20525;-63
2022/11/15 08:08:19;;;;;;;3.93;2.33;;;7.70;98.00;;;;;;5050568;28;20540;-64
2022/11/15 08:10:46;;;;;;;1.77;1.67;;;7.80;98.00;;;;;;5051810;28;20454;-63
2022/11/15 08:13:14;;;;;;;4.13;2.13;;;7.80;98.00;;;;;;5052051;28;20465;-63
2022/11/15 08:15:42;;;;;;;3.70;2.20;;;7.90;98.00;;;;;;5051745;28;20869;-65
2022/11/15 08:18:12;;;;;;;5.13;2.80;;;8.00;98.00;;;;;;5051662;28;20499;-64
2022/11/15 08:20:41;;;;;;;3.60;2.40;;;8.10;98.00;;;;;;5051737;28;21033;-64
2022/11/15 08:23:10;;;;;;;9.70;3.07;;;8.30;98.00;;;;;;5051736;28;20465;-64
2022/11/15 08:25:37;;;;;;;7.20;3.37;;;8.50;98.00;;;;;;5051600;28;20469;-65
2022/11/15 08:28:06;;;;;;;4.03;2.77;;;8.70;98.00;;;;;;5051435;28;20461;-63
2022/11/15 08:30:37;;;;;;;4.83;3.10;;;8.80;98.00;;;;;;5051449;28;20838;-65
2022/11/15 08:33:04;;;;;;;3.50;2.47;;;9.00;98.00;;;;;;5033382;28;20459;-64
2022/11/15 08:35:32;;;;;;;4.57;2.70;;;9.30;98.00;;;;;;5051339;28;20549;-64
2022/11/15 08:38:00;;;;;;;3.00;2.27;;;9.50;98.00;;;;;;5051273;28;20487;-65
2022/11/15 08:40:33;;;;;;;5.47;3.30;;;9.60;98.00;;;;;;5051311;28;20454;-65
2022/11/15 08:43:02;;;;;;;5.07;2.67;;;9.60;98.00;;;;;;5051332;28;20464;-64
2022/11/15 08:45:32;;;;;;;4.17;2.00;;;9.70;98.00;;;;;;5033144;28;20454;-65
2022/11/15 08:48:02;;;;;;;2.30;2.00;;;9.80;98.00;;;;;;5051423;28;20462;-65
2022/11/15 08:50:34;;;;;;;5.10;2.50;;;9.80;98.00;;;;;;5049914;28;20817;-65
2022/11/15 08:53:07;;;;;;;6.20;2.97;;;9.90;98.00;;;;;;5051369;28;20462;-64
2022/11/15 08:55:37;;;;;;;4.97;2.90;;;10.00;98.00;;;;;;5051588;28;20506;-66
2022/11/15 08:58:04;;;;;;;5.77;2.63;;;10.20;98.00;;;;;;5051276;28;20547;-64
2022/11/15 09:00:32;;;;;;;4.23;3.00;;;10.30;98.00;;;;;;5051266;28;20462;-65
2022/11/15 09:02:59;;;;;;;4.17;2.43;;;10.30;98.00;;;;;;5050579;28;20461;-65
2022/11/15 09:05:26;;;;;;;5.70;2.93;;;10.50;98.00;;;;;;5051067;28;20484;-64
2022/11/15 09:07:54;;;;;;;5.23;2.77;;;10.60;98.00;;;;;;5032921;28;20890;-66
2022/11/15 09:10:24;;;;;;;4.30;3.07;;;10.60;98.00;;;;;;5051112;28;20462;-65
2022/11/15 09:12:51;;;;;;;3.00;2.10;;;10.60;98.00;;;;;;5050189;28;20480;-63
2022/11/15 09:15:19;;;;;;;5.50;3.17;;;10.70;98.00;;;;;;5050549;28;20463;-65
2022/11/15 09:17:46;;;;;;;3.30;2.20;;;10.70;98.00;;;;;;5032763;28;20525;-66
2022/11/15 09:20:14;;;;;;;3.03;2.10;;;10.70;98.00;;;;;;5044717;28;20451;-64
2022/11/15 09:22:41;;;;;;;4.10;2.60;;;10.70;98.00;;;;;;5050800;28;20476;-65
2022/11/15 09:25:10;;;;;;;3.67;2.63;;;10.70;98.00;;;;;;5050853;28;20457;-66
2022/11/15 09:27:38;;;;;;;7.73;2.93;;;10.90;98.00;;;;;;5050679;28;20476;-65
2022/11/15 09:30:06;;;;;;;10.00;2.93;;;10.80;98.00;;;;;;5050584;28;20456;-66
2022/11/15 09:32:33;;;;;;;3.73;2.47;;;10.90;98.00;;;;;;5042785;28;20946;-65
2022/11/15 09:35:00;;;;;;;3.60;2.70;;;11.10;98.00;;;;;;5033174;28;20839;-65
2022/11/15 09:37:28;;;;;;;3.83;2.63;;;11.20;98.00;;;;;;5045184;28;20480;-64
2022/11/15 09:39:55;;;;;;;5.37;3.00;;;11.40;98.00;;;;;;5051156;28;20456;-65
2022/11/15 09:42:44;;;;;;;5.50;2.70;;;11.50;98.00;;;;;;5049819;28;20451;-64
2022/11/15 09:45:19;;;;;;;3.43;2.23;;;11.50;98.00;;;;;;5048974;28;20463;-63
2022/11/15 09:48:03;;;;;;;9.07;2.80;;;11.70;98.00;;;;;;5030505;28;20462;-64
2022/11/15 09:50:36;;;;;;;3.60;2.37;;;11.90;98.00;;;;;;5012081;28;20465;-63
2022/11/15 09:53:04;;;;;;;3.30;2.17;;;11.90;98.00;;;;;;5030298;28;20948;-64
2022/11/15 09:55:41;;;;;;;4.80;2.90;;;11.90;98.00;;;;;;5029904;28;20471;-65
2022/11/15 09:58:23;;;;;;;5.67;2.93;;;12.00;98.00;;;;;;5012421;28;20497;-61
2022/11/15 10:00:53;;;;;;;5.07;2.63;;;12.00;98.00;;;;;;5029694;28;20507;-64
2022/11/15 10:03:26;;;;;;;4.27;2.43;;;12.10;98.00;;;;;;5012860;28;20461;-63
2022/11/15 10:05:58;;;;;;;4.80;2.90;;;12.10;98.00;;;;;;5030021;28;20485;-65
2022/11/15 10:08:34;;;;;;;5.10;2.80;;;12.20;98.00;;;;;;5029723;28;20496;-65
2022/11/15 10:11:04;;;;;;;8.23;3.40;;;12.20;98.00;;;;;;5013415;28;20921;-65
2022/11/15 10:13:38;;;;;;;3.70;2.60;;;12.30;98.00;;;;;;5016356;28;21031;-66
2022/11/15 10:16:15;;;;;;;8.50;3.30;;;12.40;98.00;;;;;;5012857;28;20455;-64
2022/11/15 10:18:50;;;;;;;4.70;2.70;;;12.50;98.00;;;;;;5019594;28;20500;-64
2022/11/15 10:21:23;;;;;;;6.07;2.47;;;12.50;98.00;;;;;;5029461;28;20474;-63
2022/11/15 10:23:51;;;;;;;3.60;2.50;;;12.70;98.00;;;;;;5029607;28;20464;-64
2022/11/15 10:26:18;;;;;;;6.40;3.17;;;12.80;98.00;;;;;;5029489;28;20461;-63
2022/11/15 10:28:47;;;;;;;2.90;2.03;;;12.90;98.00;;;;;;5028434;28;20472;-63
2022/11/15 10:31:25;;;;;;;4.47;2.60;;;13.00;98.00;;;;;;5007279;28;21010;-64
2022/11/15 10:34:05;;;;;;;7.47;2.50;;;13.10;98.00;;;;;;5029570;28;20475;-64
2022/11/15 10:36:33;;;;;;;8.87;2.43;;;13.30;98.00;;;;;;5029456;28;20480;-64
2022/11/15 10:39:05;;;;;;;4.50;3.00;;;13.50;98.00;;;;;;5029314;28;20491;-64
2022/11/15 10:41:40;;;;;;;4.10;2.47;;;13.60;98.00;;;;;;5029472;28;20519;-64
2022/11/15 10:44:27;;;;;;;5.47;2.43;;;13.70;98.00;;;;;;5029596;28;20787;-62
2022/11/15 10:47:34;;;;;;;7.80;3.50;;;13.70;98.00;;;;;;5013918;28;20943;-63
2022/11/15 10:50:05;;;;;;;9.63;3.63;;;13.80;98.00;;;;;;5026927;28;20798;-63
2022/11/15 10:52:38;;;;;;;6.07;3.10;;;14.00;98.00;;;;;;5029226;28;20861;-63
2022/11/15 10:55:23;;;;;;;10.43;3.47;;;14.00;98.00;;;;;;5028599;28;20473;-62
2022/11/15 10:57:53;;;;;;;3.57;2.40;;;14.10;98.00;;;;;;5029309;28;20505;-63
2022/11/15 11:00:35;;;;;;;5.50;2.73;;;14.20;98.00;;;;;;5029040;28;20950;-63
2022/11/15 11:03:03;;;;;;;5.77;3.10;;;14.30;98.00;;;;;;5014692;28;20804;-64
2022/11/15 11:05:33;;;;;;;5.80;2.80;;;14.40;98.00;;;;;;5029009;28;20468;-64
2022/11/15 11:08:04;;;;;;;8.70;3.17;;;14.50;98.00;;;;;;5028936;28;20464;-64
2022/11/15 11:10:31;;;;;;;5.20;2.57;;;14.50;98.00;;;;;;5032246;28;20502;-63
2022/11/15 11:13:14;;;;;;;4.90;3.13;;;14.60;98.00;;;;;;5032974;28;21055;-64
2022/11/15 11:15:47;;;;;;;3.40;2.40;;;14.70;98.00;;;;;;5033001;28;20469;-64
2022/11/15 11:18:27;;;;;;;4.90;2.70;;;14.80;98.00;;;;;;5033024;28;20498;-64
2022/11/15 11:21:02;;;;;;;5.57;3.27;;;14.80;98.00;;;;;;5032789;28;20507;-64
2022/11/15 11:23:44;;;;;;;3.70;3.03;;;14.80;98.00;;;;;;5032894;28;20460;-64
2022/11/15 11:26:25;;;;;;;3.57;2.43;;;14.80;98.00;;;;;;5033301;28;20461;-64
2022/11/15 11:29:00;;;;;;;6.23;2.70;;;15.00;98.00;;;;;;5032826;28;20463;-66
2022/11/15 11:31:40;;;;;;;4.17;2.53;;;15.00;98.00;;;;;;5032517;28;20470;-64
2022/11/15 11:34:18;;;;;;;4.73;2.90;;;14.90;98.00;;;;;;5032448;28;20523;-65
2022/11/15 11:36:55;;;;;;;6.40;3.10;;;15.00;98.00;;;;;;5032839;28;20841;-64
2022/11/15 11:39:32;;;;;;;4.97;2.37;;;15.00;98.00;;;;;;5032809;28;20499;-65
2022/11/15 11:42:08;;;;;;;5.00;2.60;;;14.90;98.00;;;;;;5032855;28;20460;-64
2022/11/15 11:44:43;;;;;;;3.27;2.37;;;14.90;98.00;;;;;;5015689;28;20478;-65
2022/11/15 11:47:14;;;;;;;5.07;2.40;;;14.90;98.00;;;;;;5032744;28;20468;-65
2022/11/15 11:49:50;;;;;;;4.53;2.23;;;14.90;98.00;;;;;;5030180;28;20458;-65
2022/11/15 11:52:23;;;;;;;3.43;2.20;;;15.00;98.00;;;;;;5032542;28;20982;-65
2022/11/15 11:55:00;;;;;;;4.93;2.40;;;15.00;98.00;;;;;;5032250;28;20908;-65
2022/11/15 11:57:35;;;;;;;4.43;2.80;;;15.10;98.00;;;;;;5032031;28;20564;-65
2022/11/15 12:00:06;;;;;;;2.57;1.80;;;15.10;98.00;;;;;;5032278;28;20540;-64
2022/11/15 12:02:39;;;;;;;4.03;2.10;;;15.10;98.00;;;;;;5032144;28;20465;-65
2022/11/15 12:05:14;;;;;;;3.40;2.30;;;15.20;98.00;;;;;;5032251;28;20457;-65
2022/11/15 12:07:43;;;;;;;4.60;2.30;;;15.20;98.00;;;;;;5014525;28;20948;-64
2022/11/15 12:10:20;;;;;;;4.53;1.87;;;15.20;98.00;;;;;;5032398;28;20467;-64
2022/11/15 12:12:55;;;;;;;3.43;1.90;;;15.30;98.00;;;;;;5031977;28;20500;-65
2022/11/15 12:15:25;;;;;;;7.70;3.70;;;15.40;98.00;;;;;;5031953;28;20553;-65
2022/11/15 12:17:56;;;;;;;4.47;2.53;;;15.50;98.00;;;;;;5031921;28;20999;-65
2022/11/15 12:20:25;;;;;;;7.40;2.87;;;15.50;98.00;;;;;;5030998;28;20472;-64
2022/11/15 12:22:58;;;;;;;4.90;2.77;;;15.60;98.00;;;;;;5031752;28;20455;-64
2022/11/15 12:25:31;;;;;;;4.63;2.37;;;15.80;98.00;;;;;;5031796;28;20505;-65
2022/11/15 12:28:07;;;;;;;2.97;2.17;;;15.90;98.00;;;;;;5031921;28;20485;-64
2022/11/15 12:30:44;;;;;;;3.63;2.17;;;16.20;98.00;;;;;;5032237;28;20469;-64
2022/11/15 12:33:39;;;;;;;6.17;2.60;;;16.20;98.00;;;;;;5031917;28;20871;-63
2022/11/15 12:36:10;;;;;;;6.60;2.37;;;16.40;98.00;;;;;;5032038;28;20834;-63
2022/11/15 12:39:09;;;;;;;4.67;2.57;;;16.50;98.00;;;;;;5031439;28;20573;-64
2022/11/15 12:41:37;;;;;;;4.53;2.47;;;16.40;98.00;;;;;;4987431;28;20455;-65
2022/11/15 12:44:11;;;;;;;4.60;2.87;;;16.30;98.00;;;;;;5031256;28;20443;-65
2022/11/15 12:47:02;;;;;;;3.63;2.40;;;16.20;98.00;;;;;;5030561;28;20517;-65
2022/11/15 12:49:48;;;;;;;3.67;2.60;;;16.00;98.00;;;;;;5028866;28;20600;-64
2022/11/15 12:55:29;;;;;;;6.27;2.17;;;15.90;98.00;;;;;;5030770;28;20531;-64
2022/11/15 12:58:28;;;;;;;4.90;2.50;;;15.90;98.00;;;;;;5017578;28;20475;-64
2022/11/15 13:00:55;;;;;;;2.70;1.93;;;15.70;98.00;;;;;;5031195;28;20494;-63
2022/11/15 13:03:28;;;;;;;3.03;2.50;;;15.60;98.00;;;;;;5031813;28;20993;-64
2022/11/15 13:06:29;;;;;;;2.60;2.03;;;15.60;98.00;;;;;;5030976;28;20524;-64
2022/11/15 13:08:57;;;;;;;4.90;2.53;;;15.60;98.00;;;;;;5031084;28;20454;-64
2022/11/15 13:11:44;;;;;;;3.67;2.40;;;15.50;98.00;;;;;;5019869;28;21320;-64
2022/11/15 13:14:40;;;;;;;5.60;2.73;;;15.50;98.00;;;;;;4994529;28;20946;-64
2022/11/15 13:17:33;;;;;;;3.43;1.80;;;15.40;98.00;;;;;;4993857;28;20496;-64
2022/11/15 13:20:18;;;;;;;3.97;2.27;;;15.40;98.00;;;;;;4992205;28;20578;-63
2022/11/15 13:22:56;;;;;;;2.27;1.77;;;15.40;98.00;;;;;;4994173;28;20464;-63
2022/11/15 13:25:39;;;;;;;2.73;1.90;;;15.40;98.00;;;;;;4994132;28;20475;-64
2022/11/15 13:28:18;;;;;;;3.33;2.10;;;15.40;98.00;;;;;;4993381;28;20479;-63
2022/11/15 13:30:51;;;;;;;2.37;2.20;;;15.40;98.00;;;;;;4993745;28;20452;-64